createdAt,value
2023-01-02T00:00:20.895Z,2.599
2023-01-02T00:02:16.116Z,3.099
2023-01-02T00:03:16.549Z,2.799
2023-01-02T00:04:15.845Z,2.700
2023-01-02T00:06:15.747Z,2.5
2023-01-02T00:07:16.437Z,2.799
2023-01-02T00:08:15.168Z,3.200
2023-01-02T00:09:16.452Z,2.799
2023-01-02T00:10:16.555Z,2.700
2023-01-02T00:11:16.532Z,2.900
2023-01-02T00:12:15.655Z,3.099
2023-01-02T00:13:15.207Z,2.799
2023-01-02T00:14:15.699Z,3
2023-01-02T00:15:15.797Z,2.700
2023-01-02T00:16:15.824Z,2.799
2023-01-02T00:17:16.158Z,2.700
2023-01-02T00:18:16.336Z,2.900
2023-01-02T00:19:16.374Z,2.700
2023-01-02T00:20:16.171Z,2.599
2023-01-02T00:21:15.607Z,3.099
2023-01-02T00:23:15.498Z,2.799
2023-01-02T00:24:15.696Z,3
2023-01-02T00:25:16.289Z,2.799
2023-01-02T00:26:15.868Z,2.900
2023-01-02T00:27:16.058Z,3.200
2023-01-02T00:28:20.756Z,2.700
2023-01-02T00:29:15.535Z,2.799
2023-01-02T00:30:15.553Z,2.700
2023-01-02T00:31:15.872Z,2.599
2023-01-02T00:32:16.123Z,3.200
2023-01-02T00:33:17.728Z,2.900
2023-01-02T00:34:17.482Z,2.700
2023-01-02T00:35:17.470Z,3.400
2023-01-02T00:36:17.428Z,2.799
2023-01-02T00:37:17.434Z,2.900
2023-01-02T00:38:17.474Z,2.5
2023-01-02T00:39:16.566Z,3
2023-01-02T00:40:17.620Z,2.900
2023-01-02T00:41:17.890Z,2.799
2023-01-02T00:43:17.537Z,3.200
2023-01-02T00:44:17.611Z,3
2023-01-02T00:45:17.646Z,2.799
2023-01-02T00:46:16.733Z,3
2023-01-02T00:47:17.347Z,2.799
2023-01-02T00:48:17.386Z,3
2023-01-02T00:49:18.268Z,2.900
2023-01-02T00:51:17.319Z,3
2023-01-02T00:52:16.842Z,3.200
2023-01-02T00:53:17.517Z,2.900
2023-01-02T00:54:17.252Z,2.700
2023-01-02T00:55:17.201Z,2.900
2023-01-02T00:56:18.383Z,3
2023-01-02T00:57:18.264Z,2.900
2023-01-02T00:58:17.482Z,2.700
2023-01-02T01:00:23.582Z,2.900
2023-01-02T01:02:16.663Z,2.700
2023-01-02T01:03:17.212Z,2.900
2023-01-02T01:04:18.426Z,2.799
2023-01-02T01:06:17.548Z,2.700
2023-01-02T01:09:18.152Z,2.900
2023-01-02T01:10:18.457Z,2.5
2023-01-02T01:11:17.487Z,2.900
2023-01-02T01:13:17.864Z,2.799
2023-01-02T01:14:15.700Z,2.700
2023-01-02T01:15:17.657Z,2.799
2023-01-02T01:16:16.925Z,2.700
2023-01-02T01:18:17.224Z,2.799
2023-01-02T01:19:17.575Z,2.700
2023-01-02T01:20:17.768Z,2.799
2023-01-02T01:22:17.877Z,2.900
2023-01-02T01:25:18.315Z,2.5
2023-01-02T01:26:17.864Z,2.900
2023-01-02T01:27:17.307Z,3.099
2023-01-02T01:28:17.244Z,2.700
2023-01-02T01:29:17.527Z,3
2023-01-02T01:30:17.746Z,2.900
2023-01-02T01:33:17.307Z,3
2023-01-02T01:34:17.096Z,2.900
2023-01-02T01:35:18.026Z,3.099
2023-01-02T01:36:15.846Z,3.299
2023-01-02T01:37:16.029Z,2.900
2023-01-02T01:38:15.862Z,2.799
2023-01-02T01:39:16.077Z,2.900
2023-01-02T01:41:16.421Z,2.799
2023-01-02T01:42:15.684Z,2.700
2023-01-02T01:43:15.766Z,3.099
2023-01-02T01:44:16.092Z,2.799
2023-01-02T01:45:16.161Z,2.900
2023-01-02T01:47:16.381Z,2.900
2023-01-02T01:48:16.200Z,3
2023-01-02T01:49:16.128Z,2.900
2023-01-02T01:51:16.242Z,2.700
2023-01-02T01:52:16.186Z,3.099
2023-01-02T01:53:16.160Z,2.700
2023-01-02T01:54:15.768Z,2.799
2023-01-02T01:55:15.469Z,3.299
2023-01-02T01:56:15.581Z,2.900
2023-01-02T01:57:15.735Z,3.200
2023-01-02T01:58:16.371Z,2.900
2023-01-02T01:59:16.229Z,2.799
2023-01-02T02:00:17.440Z,2.700
2023-01-02T02:01:16.620Z,3.099
2023-01-02T02:02:16.099Z,2.700
2023-01-02T02:03:16.612Z,2.799
2023-01-02T02:04:16.404Z,3
2023-01-02T02:06:16.140Z,2.700
2023-01-02T02:07:16.237Z,3
2023-01-02T02:08:16.161Z,2.799
2023-01-02T02:09:16.655Z,3
2023-01-02T02:10:16.914Z,2.900
2023-01-02T02:11:15.961Z,3
2023-01-02T02:12:16.305Z,2.900
2023-01-02T02:13:15.995Z,2.799
2023-01-02T02:14:15.698Z,3.099
2023-01-02T02:16:15.529Z,2.700
2023-01-02T02:17:15.982Z,2.799
2023-01-02T02:18:15.680Z,2.900
2023-01-02T02:20:15.667Z,3.099
2023-01-02T02:21:15.626Z,2.799
2023-01-02T02:23:15.706Z,2.599
2023-01-02T02:25:15.901Z,3
2023-01-02T02:26:15.390Z,2.799
2023-01-02T02:27:17.234Z,2.900
2023-01-02T02:28:17.606Z,2.599
2023-01-02T02:29:17.716Z,2.400
2023-01-02T02:30:17.818Z,2.700
2023-01-02T02:31:17.666Z,2.400
2023-01-02T02:32:17.477Z,2.599
2023-01-02T02:33:16.855Z,2.900
2023-01-02T02:34:16.440Z,2.599
2023-01-02T02:35:17.107Z,3
2023-01-02T02:36:16.910Z,3.099
2023-01-02T02:37:17.429Z,2.900
2023-01-02T02:38:18.311Z,2.599
2023-01-02T02:39:17.147Z,3.099
2023-01-02T02:40:17.319Z,2.799
2023-01-02T02:41:16.600Z,2.599
2023-01-02T02:43:16.885Z,2.900
2023-01-02T02:44:16.931Z,2.700
2023-01-02T02:45:16.896Z,2.599
2023-01-02T02:46:17.022Z,2.700
2023-01-02T02:49:17.221Z,2.799
2023-01-02T02:51:17.325Z,2.599
2023-01-02T02:52:17.802Z,3
2023-01-02T02:53:16.789Z,2.700
2023-01-02T02:54:17.006Z,2.799
2023-01-02T02:55:16.577Z,3.099
2023-01-02T02:56:15.536Z,2.599
2023-01-02T02:57:15.505Z,2.5
2023-01-02T02:58:15.787Z,2.599
2023-01-02T02:59:15.336Z,2.799
2023-01-02T03:01:15.977Z,3
2023-01-02T03:02:15.820Z,2.900
2023-01-02T03:03:15.791Z,2.700
2023-01-02T03:07:16.762Z,2.900
2023-01-02T03:08:16.212Z,2.799
2023-01-02T03:09:16.306Z,3.099
2023-01-02T03:10:15.629Z,2.599
2023-01-02T03:11:15.609Z,3
2023-01-02T03:12:15.723Z,2.900
2023-01-02T03:13:16.470Z,2.700
2023-01-02T03:15:16.088Z,2.799
2023-01-02T03:16:15.679Z,2.700
2023-01-02T03:17:15.270Z,2.799
2023-01-02T03:18:15.775Z,2.700
2023-01-02T03:19:15.513Z,2.799
2023-01-02T03:20:15.875Z,2.700
2023-01-02T03:21:16.001Z,2.900
2023-01-02T03:22:15.884Z,2.799
2023-01-02T03:23:15.750Z,2.900
2023-01-02T03:24:15.432Z,3
2023-01-02T03:25:15.823Z,2.799
2023-01-02T03:27:15.470Z,2.900
2023-01-02T03:28:15.165Z,3.299
2023-01-02T03:29:15.931Z,2.700
2023-01-02T03:30:16.659Z,3
2023-01-02T03:31:15.977Z,2.599
2023-01-02T03:32:15.909Z,2.799
2023-01-02T03:33:15.530Z,2.700
2023-01-02T03:34:16.619Z,2.799
2023-01-02T03:35:16.080Z,2.900
2023-01-02T03:36:16.109Z,2.799
2023-01-02T03:38:15.496Z,3
2023-01-02T03:39:16.487Z,2.599
2023-01-02T03:40:15.885Z,3.099
2023-01-02T03:41:15.609Z,2.900
2023-01-02T03:42:15.156Z,3
2023-01-02T03:43:15.802Z,2.900
2023-01-02T03:44:15.864Z,2.799
2023-01-02T03:45:15.858Z,2.5
2023-01-02T03:46:17.597Z,2.900
2023-01-02T03:47:17.400Z,2.700
2023-01-02T03:48:17.399Z,2.900
2023-01-02T03:50:17.208Z,3
2023-01-02T03:51:16.898Z,2.700
2023-01-02T03:52:21.156Z,2.900
2023-01-02T03:54:17.308Z,3
2023-01-02T03:55:17.781Z,2.799
2023-01-02T03:56:17.103Z,2.900
2023-01-02T03:57:17.720Z,2.799
2023-01-02T03:58:16.980Z,3.099
2023-01-02T03:59:17.681Z,2.799
2023-01-02T04:02:17.418Z,3
2023-01-02T04:03:17.286Z,3.099
2023-01-02T04:04:17.144Z,2.900
2023-01-02T04:05:17.752Z,3.099
2023-01-02T04:06:17.416Z,2.799
2023-01-02T04:08:17.264Z,3
2023-01-02T04:09:17.377Z,2.900
2023-01-02T04:10:17.807Z,2.799
2023-01-02T04:11:17.605Z,2.900
2023-01-02T04:12:17.723Z,2.700
2023-01-02T04:13:17.486Z,3
2023-01-02T04:14:17.341Z,2.900
2023-01-02T04:16:18.195Z,2.799
2023-01-02T04:17:16.673Z,2.700
2023-01-02T04:18:17.223Z,2.900
2023-01-02T04:20:17.020Z,2.599
2023-01-02T04:22:16.880Z,2.700
2023-01-02T04:23:16.856Z,2.900
2023-01-02T04:24:17.111Z,2.799
2023-01-02T04:25:17.616Z,3.299
2023-01-02T04:26:16.955Z,2.799
2023-01-02T04:27:16.723Z,2.900
2023-01-02T04:29:18.063Z,3
2023-01-02T04:30:18.069Z,2.700
2023-01-02T04:32:17.223Z,2.799
2023-01-02T04:34:16.756Z,2.700
2023-01-02T04:35:17.870Z,2.5
2023-01-02T04:36:17.150Z,3
2023-01-02T04:37:17.114Z,2.700
2023-01-02T04:38:16.882Z,2.799
2023-01-02T04:39:17.108Z,2.700
2023-01-02T04:40:17.326Z,2.799
2023-01-02T04:41:17.307Z,2.900
2023-01-02T04:42:18.336Z,2.599
2023-01-02T04:43:17.541Z,3
2023-01-02T04:44:17.065Z,2.799
2023-01-02T04:46:17.066Z,3
2023-01-02T04:47:21.779Z,2.900
2023-01-02T04:48:16.857Z,2.5
2023-01-02T04:49:17.544Z,2.700
2023-01-02T04:50:17.486Z,2.599
2023-01-02T04:51:17.114Z,3.099
2023-01-02T04:52:17.734Z,2.900
2023-01-02T04:53:17.348Z,3.299
2023-01-02T04:54:17.630Z,2.799
2023-01-02T04:55:18.139Z,2.700
2023-01-02T04:56:17.594Z,2.799
2023-01-02T04:57:17.616Z,3
2023-01-02T04:58:16.693Z,2.900
2023-01-02T04:59:17.350Z,2.700
2023-01-02T05:00:17.623Z,3
2023-01-02T05:02:17.392Z,2.599
2023-01-02T05:04:16.975Z,3
2023-01-02T05:05:17.069Z,2.700
2023-01-02T05:06:17.260Z,3
2023-01-02T05:07:17.507Z,2.900
2023-01-02T05:08:17.039Z,2.700
2023-01-02T05:09:17.105Z,2.900
2023-01-02T05:10:17.178Z,2.700
2023-01-02T05:11:18.182Z,2.900
2023-01-02T05:12:18.296Z,3.099
2023-01-02T05:13:17.370Z,2.900
2023-01-02T05:14:18.118Z,3.400
2023-01-02T05:15:17.790Z,2.700
2023-01-02T05:16:17.171Z,3.099
2023-01-02T05:18:17.036Z,3.200
2023-01-02T05:19:17.384Z,3.299
2023-01-02T05:20:18.257Z,3.200
2023-01-02T05:22:17.205Z,2.900
2023-01-02T05:23:17.848Z,2.700
2023-01-02T05:24:16.774Z,2.900
2023-01-02T05:26:17.247Z,3.299
2023-01-02T05:27:17.217Z,2.900
2023-01-02T05:28:17.451Z,3
2023-01-02T05:29:17.023Z,3.700
2023-01-02T05:30:18.236Z,3.099
2023-01-02T05:31:17.335Z,2.700
2023-01-02T05:32:16.928Z,2.799
2023-01-02T05:33:17.879Z,3.099
2023-01-02T05:34:17.381Z,2.900
2023-01-02T05:35:17.887Z,3.099
2023-01-02T05:36:17.476Z,2.700
2023-01-02T05:38:16.721Z,2.900
2023-01-02T05:42:17.077Z,2.900
2023-01-02T05:43:16.784Z,3
2023-01-02T05:44:17.331Z,3.299
2023-01-02T05:45:17.554Z,2.700
2023-01-02T05:46:18.464Z,2.900
2023-01-02T05:47:18.606Z,2.700
2023-01-02T05:48:18.125Z,2.900
2023-01-02T05:49:16.947Z,2.599
2023-01-02T05:50:31.749Z,3.099
2023-01-02T05:51:17.673Z,2.700
2023-01-02T05:52:17.804Z,2.900
2023-01-02T05:53:17.092Z,2.700
2023-01-02T05:54:16.490Z,2.599
2023-01-02T05:55:17.737Z,2.799
2023-01-02T05:56:17.200Z,2.900
2023-01-02T05:57:17.074Z,2.799
2023-01-02T06:00:18.246Z,2.700
2023-01-02T06:01:17.283Z,2.799
2023-01-02T06:02:15.729Z,3.099
2023-01-02T06:03:16.094Z,2.799
2023-01-02T06:04:19.887Z,3
2023-01-02T06:05:15.906Z,2.900
2023-01-02T06:06:15.697Z,3
2023-01-02T06:07:15.433Z,2.799
2023-01-02T06:08:16.022Z,3.099
2023-01-02T06:10:16.041Z,2.900
2023-01-02T06:13:16.209Z,3.099
2023-01-02T06:15:15.678Z,2.700
2023-01-02T06:16:15.376Z,3.099
2023-01-02T06:17:18.348Z,2.900
2023-01-02T06:18:16.806Z,2.5
2023-01-02T06:19:16.781Z,3
2023-01-02T06:20:15.888Z,2.700
2023-01-02T06:21:15.996Z,2.900
2023-01-02T06:22:16.864Z,2.799
2023-01-02T06:24:15.792Z,2.700
2023-01-02T06:26:16.099Z,2.799
2023-01-02T06:27:16.200Z,2.599
2023-01-02T06:28:16.126Z,2.900
2023-01-02T06:30:15.903Z,2.799
2023-01-02T06:31:15.637Z,2.5
2023-01-02T06:32:16.413Z,2.900
2023-01-02T06:34:15.047Z,2.799
2023-01-02T06:35:16.001Z,2.900
2023-01-02T06:36:15.496Z,2.799
2023-01-02T06:37:15.807Z,2.900
2023-01-02T06:38:15.192Z,2.799
2023-01-02T06:39:16.044Z,2.900
2023-01-02T06:40:15.584Z,3.099
2023-01-02T06:41:16.241Z,3
2023-01-02T06:42:15.783Z,2.799
2023-01-02T06:43:15.525Z,2.5
2023-01-02T06:44:16.325Z,3
2023-01-02T06:45:16.710Z,2.900
2023-01-02T06:47:15.900Z,2.700
2023-01-02T06:48:15.988Z,3
2023-01-02T06:49:16.017Z,2.900
2023-01-02T06:50:16.218Z,2.799
2023-01-02T06:51:16.469Z,3
2023-01-02T06:52:15.138Z,2.700
2023-01-02T06:54:16.083Z,2.900
2023-01-02T06:55:15.823Z,2.799
2023-01-02T06:56:16.081Z,2.900
2023-01-02T06:57:16.427Z,3.099
2023-01-02T06:58:19.355Z,2.799
2023-01-02T06:59:15.601Z,2.900
2023-01-02T07:01:16.199Z,2.700
2023-01-02T07:02:16.388Z,2.599
2023-01-02T07:03:15.939Z,2.900
2023-01-02T07:04:15.777Z,2.799
2023-01-02T07:05:19.713Z,2.700
2023-01-02T07:06:15.323Z,3
2023-01-02T07:07:16.252Z,2.900
2023-01-02T07:08:15.855Z,2.700
2023-01-02T07:10:16.435Z,3.099
2023-01-02T07:11:15.694Z,2.799
2023-01-02T07:12:16.293Z,2.700
2023-01-02T07:13:15.443Z,2.799
2023-01-02T07:14:15.234Z,3
2023-01-02T07:15:16.706Z,2.599
2023-01-02T07:17:15.841Z,3
2023-01-02T07:18:15.869Z,2.5
2023-01-02T07:19:15.634Z,2.900
2023-01-02T07:20:15.952Z,2.799
2023-01-02T07:21:16.408Z,3
2023-01-02T07:23:15.969Z,2.900
2023-01-02T07:25:15.890Z,3
2023-01-02T07:26:16.187Z,2.700
2023-01-02T07:27:16.391Z,2.799
2023-01-02T07:28:16.545Z,2.700
2023-01-02T07:30:15.875Z,3
2023-01-02T07:31:15.663Z,3.099
2023-01-02T07:32:15.982Z,3
2023-01-02T07:33:16.179Z,2.799
2023-01-02T07:34:15.753Z,2.900
2023-01-02T07:35:15.854Z,3.099
2023-01-02T07:36:15.974Z,3
2023-01-02T07:37:16.038Z,2.599
2023-01-02T07:38:15.267Z,2.799
2023-01-02T07:39:16.224Z,2.900
2023-01-02T07:41:16.416Z,2.599
2023-01-02T07:44:16.290Z,2.900
2023-01-02T07:47:16.176Z,2.700
2023-01-02T07:48:16.112Z,2.799
2023-01-02T07:49:16.377Z,2.5
2023-01-02T07:50:15.521Z,2.900
2023-01-02T07:51:18.528Z,2.299
2023-01-02T07:52:16.518Z,3
2023-01-02T07:53:15.615Z,2.799
2023-01-02T07:54:16.238Z,2.5
2023-01-02T07:55:16.290Z,2.400
2023-01-02T07:56:16.162Z,2
2023-01-02T07:57:15.657Z,2.700
2023-01-02T07:58:16.147Z,2.599
2023-01-02T08:01:16.429Z,2.400
2023-01-02T08:02:16.227Z,2.299
2023-01-02T08:03:15.410Z,2.799
2023-01-02T08:04:16.049Z,2.299
2023-01-02T08:05:30.276Z,2.400
2023-01-02T08:06:16.580Z,2.599
2023-01-02T08:07:29.834Z,2
2023-01-02T08:08:15.696Z,2.400
2023-01-02T08:09:15.770Z,2.299
2023-01-02T08:10:16.281Z,2.099
2023-01-02T08:11:15.821Z,2.299
2023-01-02T08:13:15.873Z,2.5
2023-01-02T08:16:16.497Z,2.400
2023-01-02T08:17:16.272Z,1.899
2023-01-02T08:18:16.522Z,2.299
2023-01-02T08:19:16.154Z,2.5
2023-01-02T08:20:16.631Z,2.299
2023-01-02T08:22:15.694Z,2.400
2023-01-02T08:24:15.576Z,2.200
2023-01-02T08:25:15.899Z,2.299
2023-01-02T08:27:16.251Z,2.099
2023-01-02T08:28:15.901Z,2.299
2023-01-02T08:29:15.699Z,2.200
2023-01-02T08:30:16.004Z,2.400
2023-01-02T08:31:16.455Z,2.5
2023-01-02T08:32:15.981Z,2.400
2023-01-02T08:33:16.240Z,2.200
2023-01-02T08:35:16.759Z,1.899
2023-01-02T08:36:15.807Z,2.099
2023-01-02T08:37:15.891Z,2.299
2023-01-02T08:38:16.443Z,2.200
2023-01-02T08:40:16.321Z,2
2023-01-02T08:41:15.366Z,2.400
2023-01-02T08:42:16.568Z,2.099
2023-01-02T08:43:16.479Z,2.299
2023-01-02T08:44:15.749Z,2
2023-01-02T08:45:16.288Z,2.099
2023-01-02T08:46:15.790Z,2.299
2023-01-02T08:47:15.846Z,1.899
2023-01-02T08:48:21.184Z,2.099
2023-01-02T08:49:15.945Z,2.599
2023-01-02T08:50:16.018Z,2.200
2023-01-02T08:51:16.254Z,2
2023-01-02T08:52:16.540Z,1.799
2023-01-02T08:54:16.564Z,1.799
2023-01-02T08:55:15.722Z,2
2023-01-02T08:57:16.499Z,2.200
2023-01-02T08:58:16.507Z,1.700
2023-01-02T08:59:16.850Z,2.5
2023-01-02T09:00:16.654Z,1.799
2023-01-02T09:01:16.516Z,2.200
2023-01-02T09:03:16.238Z,1.899
2023-01-02T09:04:15.987Z,2.099
2023-01-02T09:05:16.324Z,1.799
2023-01-02T09:07:16.489Z,2
2023-01-02T09:09:16.314Z,2.299
2023-01-02T09:10:15.907Z,2
2023-01-02T09:12:16.930Z,1.899
2023-01-02T09:13:16.841Z,2.200
2023-01-02T09:14:16.216Z,2
2023-01-02T09:15:16.610Z,2.200
2023-01-02T09:16:15.753Z,1.799
2023-01-02T09:17:16.498Z,1.899
2023-01-02T09:18:15.111Z,2
2023-01-02T09:20:16.780Z,1.700
2023-01-02T09:21:16.678Z,1.899
2023-01-02T09:22:16.075Z,1.799
2023-01-02T09:23:16.530Z,1.700
2023-01-02T09:24:16.283Z,1.799
2023-01-02T09:25:23.705Z,1.700
2023-01-02T09:27:16.203Z,2
2023-01-02T09:28:16.181Z,1.899
2023-01-02T09:29:15.721Z,1.799
2023-01-02T09:30:15.913Z,1.700
2023-01-02T09:32:15.834Z,2.099
2023-01-02T09:33:16.151Z,1.899
2023-01-02T09:34:16.146Z,2
2023-01-02T09:35:15.744Z,1.700
2023-01-02T09:37:16.432Z,1.600
2023-01-02T09:40:16.108Z,1.5
2023-01-02T09:41:16.292Z,1.700
2023-01-02T09:43:16.814Z,1.899
2023-01-02T09:44:16.521Z,1.700
2023-01-02T09:45:16.577Z,1.5
2023-01-02T09:46:16.262Z,1.700
2023-01-02T09:47:16.669Z,1.899
2023-01-02T09:48:16.158Z,1.700
2023-01-02T09:49:16.686Z,1.5
2023-01-02T09:51:16.026Z,1.299
2023-01-02T09:52:16.536Z,1.600
2023-01-02T09:53:16.550Z,1.299
2023-01-02T09:55:15.868Z,1.5
2023-01-02T09:56:22.259Z,1.299
2023-01-02T09:57:16.094Z,1.100
2023-01-02T09:58:16.040Z,1.399
2023-01-02T09:59:16.101Z,1.100
2023-01-02T10:00:16.692Z,0.899
2023-01-02T10:01:15.889Z,0.800
2023-01-02T10:02:15.997Z,0.600
2023-01-02T10:03:15.896Z,0.699
2023-01-02T10:05:16.162Z,0.300
2023-01-02T10:06:16.468Z,0.5
2023-01-02T10:07:15.783Z,0.400
2023-01-02T10:09:15.859Z,0.5
2023-01-02T10:10:20.831Z,0.400
2023-01-02T10:11:16.012Z,0.600
2023-01-02T10:12:16.168Z,0.899
2023-01-02T10:13:16.107Z,0.699
2023-01-02T10:14:19.208Z,0.899
2023-01-02T10:15:16.426Z,0.800
2023-01-02T10:16:21.389Z,0.5
2023-01-02T10:17:15.648Z,0.400
2023-01-02T10:20:23.622Z,0.600
2023-01-02T10:21:17.014Z,0.5
2023-01-02T10:22:16.182Z,0.600
2023-01-02T10:23:16.311Z,0.400
2023-01-02T10:25:16.636Z,0.5
2023-01-02T10:28:16.379Z,0.600
2023-01-02T10:29:17.165Z,0.5
2023-01-02T10:32:16.054Z,0.300
2023-01-02T10:33:16.429Z,0.600
2023-01-02T10:34:16.349Z,0.300
2023-01-02T10:37:16.543Z,0.400
2023-01-02T10:38:15.655Z,0.5
2023-01-02T10:39:16.143Z,0.699
2023-01-02T10:40:16.151Z,0.400
2023-01-02T10:44:15.532Z,0.300
2023-01-02T10:45:16.002Z,0.400
2023-01-02T10:47:16.317Z,0.5
2023-01-02T10:48:16.772Z,0.300
2023-01-02T10:49:15.847Z,0.5
2023-01-02T10:51:16.554Z,0.400
2023-01-02T10:52:16.461Z,0.300
2023-01-02T10:53:16.040Z,0.400
2023-01-02T10:55:14.726Z,0.5
2023-01-02T10:59:15.410Z,0.400
2023-01-02T11:00:21.227Z,0.300
2023-01-02T11:01:16.338Z,0.600
2023-01-02T11:02:16.626Z,0.400
2023-01-02T11:08:16.408Z,0.600
2023-01-02T11:09:16.307Z,0.300
2023-01-02T11:10:16.660Z,0.400
2023-01-02T11:12:16.856Z,0.5
2023-01-02T11:13:16.649Z,0.400
2023-01-02T11:16:16.281Z,0.5
2023-01-02T11:17:16.665Z,0.400
2023-01-02T11:19:15.943Z,0.300
2023-01-02T11:21:15.686Z,0.400
2023-01-02T11:22:15.604Z,0.5
2023-01-02T11:24:16.835Z,0.600
2023-01-02T11:25:16.744Z,0.400
2023-01-02T11:26:16.145Z,0.699
2023-01-02T11:27:17.083Z,0.5
2023-01-02T11:28:16.818Z,0.800
2023-01-02T11:32:16.333Z,0.699
2023-01-02T11:33:16.602Z,0.5
2023-01-02T11:34:16.013Z,0.699
2023-01-02T11:36:16.327Z,0.5
2023-01-02T11:38:15.311Z,0.600
2023-01-02T11:39:16.233Z,0.400
2023-01-02T11:40:16.525Z,0.5
2023-01-02T11:42:16.712Z,0.400
2023-01-02T11:44:20.266Z,0.5
2023-01-02T11:45:16.043Z,0.400
2023-01-02T11:47:16.011Z,0.600
2023-01-02T11:48:16.085Z,0.5
2023-01-02T11:50:16.150Z,0.400
2023-01-02T11:51:17.638Z,0.5
2023-01-02T11:52:16.183Z,0.800
2023-01-02T11:53:16.529Z,0.600
2023-01-02T11:54:16.157Z,0.699
2023-01-02T11:55:16.228Z,0.5
2023-01-02T11:56:16.649Z,0.400
2023-01-02T11:57:18.712Z,0.5
2023-01-02T11:58:16.639Z,0.300
2023-01-02T11:59:16.230Z,0.5
2023-01-02T12:03:18.652Z,0.600
2023-01-02T12:04:15.488Z,0.5
2023-01-02T12:06:16.077Z,0.400
2023-01-02T12:07:16.293Z,0.5
2023-01-02T12:10:16.380Z,0.600
2023-01-02T12:12:15.730Z,0.400
2023-01-02T12:13:15.842Z,0.699
2023-01-02T12:14:15.599Z,0.5
2023-01-02T12:15:15.947Z,0.699
2023-01-02T12:17:16.763Z,0.300
2023-01-02T12:18:16.044Z,0.600
2023-01-02T12:19:15.759Z,0.5
2023-01-02T12:22:16.810Z,0.400
2023-01-02T12:23:15.982Z,0.5
2023-01-02T12:24:15.354Z,0.600
2023-01-02T12:25:16.261Z,0.5
2023-01-02T12:27:15.886Z,0.699
2023-01-02T12:28:15.840Z,0.600
2023-01-02T12:29:48.233Z,0.699
2023-01-02T12:30:16.394Z,0.400
2023-01-02T12:31:16.678Z,0.5
2023-01-02T12:33:16.756Z,0.400
2023-01-02T12:34:15.829Z,0.300
2023-01-02T12:35:16.524Z,0.400
2023-01-02T12:36:15.630Z,0.5
2023-01-02T12:38:21.028Z,0.400
2023-01-02T12:39:16.717Z,0.5
2023-01-02T12:43:16.082Z,0.699
2023-01-02T12:44:16.023Z,0.899
2023-01-02T12:45:16.521Z,0.800
2023-01-02T12:46:16.727Z,1
2023-01-02T12:47:16.156Z,0.899
2023-01-02T12:48:15.944Z,0.699
2023-01-02T12:50:16.150Z,0.800
2023-01-02T12:52:15.721Z,1.100
2023-01-02T12:53:15.990Z,1.200
2023-01-02T12:54:19.687Z,0.899
2023-01-02T12:55:16.080Z,1
2023-01-02T12:56:15.636Z,0.899
2023-01-02T12:57:21.713Z,0.800
2023-01-02T12:59:16.403Z,0.600
2023-01-02T13:01:15.884Z,0.800
2023-01-02T13:02:16.476Z,0.600
2023-01-02T13:03:21.839Z,0.699
2023-01-02T13:04:15.530Z,1.100
2023-01-02T13:05:30.787Z,0.899
2023-01-02T13:06:45.405Z,1.100
2023-01-02T13:07:16.144Z,0.800
2023-01-02T13:08:15.657Z,0.699
2023-01-02T13:09:22.468Z,1.100
2023-01-02T13:10:16.476Z,1
2023-01-02T13:11:16.174Z,0.800
2023-01-02T13:12:16.141Z,1
2023-01-02T13:13:15.940Z,0.899
2023-01-02T13:15:16.631Z,1
2023-01-02T13:16:24.384Z,0.899
2023-01-02T13:20:16.708Z,1
2023-01-02T13:21:16.193Z,0.800
2023-01-02T13:23:16.031Z,0.699
2023-01-02T13:25:16.774Z,0.800
2023-01-02T13:28:15.722Z,0.899
2023-01-02T13:30:20.031Z,0.800
2023-01-02T13:31:46.417Z,0.899
2023-01-02T13:32:15.918Z,1.100
2023-01-02T13:33:16.443Z,1
2023-01-02T13:34:15.451Z,1.100
2023-01-02T13:35:15.831Z,1
2023-01-02T13:36:17.665Z,1.100
2023-01-02T13:38:15.595Z,0.899
2023-01-02T13:39:16.492Z,1
2023-01-02T13:40:16.019Z,0.899
2023-01-02T13:41:16.231Z,1.299
2023-01-02T13:42:16.586Z,1
2023-01-02T13:43:15.874Z,0.899
2023-01-02T13:44:16.230Z,1.100
2023-01-02T13:46:45.389Z,1.200
2023-01-02T13:47:27.287Z,0.800
2023-01-02T13:48:16.193Z,0.899
2023-01-02T13:49:16.438Z,0.800
2023-01-02T13:51:16.265Z,1
2023-01-02T13:54:16.845Z,0.899
2023-01-02T13:55:16.223Z,1
2023-01-02T13:58:16.496Z,1.100
2023-01-02T14:02:16.166Z,1.100
2023-01-02T14:03:15.996Z,1
2023-01-02T14:04:17.087Z,1.399
2023-01-02T14:05:16.541Z,0.899
2023-01-02T14:06:15.939Z,1.200
2023-01-02T14:07:17.011Z,1.5
2023-01-02T14:08:16.514Z,1.399
2023-01-02T14:09:16.168Z,1.299
2023-01-02T14:10:16.661Z,1.5
2023-01-02T14:12:18.660Z,1.399
2023-01-02T14:13:18.346Z,1.5
2023-01-02T14:15:16.806Z,1.899
2023-01-02T14:16:18.841Z,2.299
2023-01-02T14:17:18.672Z,2.200
2023-01-02T14:18:18.057Z,2
2023-01-02T14:19:17.863Z,2.200
2023-01-02T14:20:18.955Z,2
2023-01-02T14:21:19.015Z,2.200
2023-01-02T14:22:18.544Z,2.099
2023-01-02T14:23:17.731Z,1.899
2023-01-02T14:25:18.439Z,2.299
2023-01-02T14:26:19.775Z,2.099
2023-01-02T14:27:17.805Z,1.700
2023-01-02T14:28:18.514Z,1.799
2023-01-02T14:30:19.019Z,1.5
2023-01-02T14:31:19.173Z,1.600
2023-01-02T14:32:18.630Z,1.5
2023-01-02T14:33:18.106Z,1.600
2023-01-02T14:34:18.277Z,1.399
2023-01-02T14:35:17.991Z,1.5
2023-01-02T14:36:24.501Z,1.200
2023-01-02T14:38:17.472Z,1.299
2023-01-02T14:39:17.704Z,1.200
2023-01-02T14:41:18.069Z,1.100
2023-01-02T14:42:17.536Z,1.299
2023-01-02T14:43:17.845Z,1
2023-01-02T14:44:17.181Z,0.899
2023-01-02T14:46:17.082Z,0.699
2023-01-02T14:47:17.840Z,0.5
2023-01-02T14:51:18.406Z,0.600
2023-01-02T14:52:18.445Z,0.400
2023-01-02T14:53:17.488Z,0.5
2023-01-02T14:54:16.060Z,0.300
2023-01-02T14:56:15.623Z,0.200
2023-01-02T14:57:17.183Z,0.5
2023-01-02T14:58:17.479Z,0.400
2023-01-02T15:00:19.601Z,0.300
2023-01-02T15:01:43.330Z,0.400
2023-01-02T15:02:17.592Z,0.300
2023-01-02T15:04:17.504Z,0.5
2023-01-02T15:06:17.387Z,0.800
2023-01-02T15:08:17.437Z,0.899
2023-01-02T15:10:17.596Z,1
2023-01-02T15:11:17.614Z,1.100
2023-01-02T15:12:18.278Z,1.299
2023-01-02T15:14:23.574Z,1.399
2023-01-02T15:15:17.777Z,1.299
2023-01-02T15:16:16.868Z,1.100
2023-01-02T15:17:16.974Z,0.800
2023-01-02T15:19:16.678Z,0.699
2023-01-02T15:20:26.040Z,0.899
2023-01-02T15:21:17.881Z,1.399
2023-01-02T15:22:18.213Z,1.299
2023-01-02T15:23:18.119Z,1.5
2023-01-02T15:24:18.036Z,1.600
2023-01-02T15:26:31.700Z,1.5
2023-01-02T15:27:17.635Z,1.600
2023-01-02T15:28:18.298Z,1.100
2023-01-02T15:29:18.072Z,1
2023-01-02T15:30:18.255Z,0.800
2023-01-02T15:31:17.747Z,1
2023-01-02T15:32:18.610Z,0.899
2023-01-02T15:33:17.835Z,1.100
2023-01-02T15:34:31.412Z,1.200
2023-01-02T15:35:17.482Z,1.100
2023-01-02T15:36:17.343Z,1.399
2023-01-02T15:38:17.293Z,1.5
2023-01-02T15:40:18.648Z,1.600
2023-01-02T15:42:17.670Z,1.700
2023-01-02T15:43:17.989Z,1.799
2023-01-02T15:44:17.184Z,1.600
2023-01-02T15:45:18.238Z,1.299
2023-01-02T15:46:17.734Z,1.200
2023-01-02T15:47:19.059Z,1.299
2023-01-02T15:48:18.496Z,0.899
2023-01-02T15:49:17.744Z,1.100
2023-01-02T15:51:16.988Z,0.899
2023-01-02T15:52:17.924Z,0.800
2023-01-02T15:55:16.914Z,0.699
2023-01-02T15:56:17.787Z,0.899
2023-01-02T15:57:17.492Z,1.100
2023-01-02T15:58:16.938Z,0.800
2023-01-02T15:59:16.811Z,1.100
2023-01-02T16:00:16.206Z,1.200
2023-01-02T16:01:16.185Z,0.899
2023-01-02T16:02:19.485Z,0.699
2023-01-02T16:03:16.292Z,0.899
2023-01-02T16:04:16.037Z,1
2023-01-02T16:05:16.256Z,1.200
2023-01-02T16:06:16.752Z,1
2023-01-02T16:07:17.636Z,1.100
2023-01-02T16:08:17.727Z,0.899
2023-01-02T16:09:18.309Z,0.800
2023-01-02T16:11:17.069Z,0.699
2023-01-02T16:13:17.061Z,0.400
2023-01-02T16:16:17.488Z,0.300
2023-01-02T16:17:17.380Z,0.5
2023-01-02T16:18:17.264Z,0.400
2023-01-02T16:19:17.954Z,0.300
2023-01-02T16:20:17.504Z,0.400
2023-01-02T16:24:18.191Z,1.200
2023-01-02T16:25:16.608Z,1.799
2023-01-02T16:26:17.469Z,1.399
2023-01-02T16:27:17.613Z,1.799
2023-01-02T16:29:16.454Z,1.299
2023-01-02T16:31:17.775Z,0.800
2023-01-02T16:32:17.399Z,1
2023-01-02T16:33:18.487Z,1.100
2023-01-02T16:35:17.968Z,0.699
2023-01-02T16:36:18.050Z,0.800
2023-01-02T16:37:18.632Z,0.600
2023-01-02T16:39:17.784Z,0.800
2023-01-02T16:40:18.037Z,0.699
2023-01-02T16:41:24.700Z,0.800
2023-01-02T16:44:16.991Z,1
2023-01-02T16:46:17.512Z,0.899
2023-01-02T16:47:17.551Z,1.100
2023-01-02T16:49:17.496Z,1
2023-01-02T16:50:18.145Z,1.100
2023-01-02T16:51:17.466Z,1.200
2023-01-02T16:52:18.151Z,1